createdAt,value
2022-08-30T00:00:14.022Z,25.60
2022-08-30T00:05:21.199Z,25.49
2022-08-30T00:10:28.391Z,25.45
2022-08-30T00:15:35.598Z,25.40
2022-08-30T00:20:42.756Z,25.38
2022-08-30T00:25:49.952Z,25.31
2022-08-30T00:30:57.236Z,25.22
2022-08-30T00:36:04.817Z,25.15
2022-08-30T00:41:12.005Z,25.10
2022-08-30T00:46:19.353Z,25.10
2022-08-30T00:51:26.475Z,25.07
2022-08-30T00:56:33.654Z,24.95
2022-08-30T01:01:40.899Z,24.84
2022-08-30T01:06:48.028Z,24.85
2022-08-30T01:11:55.173Z,24.87
2022-08-30T01:17:02.399Z,24.86
2022-08-30T01:22:09.584Z,24.81
2022-08-30T01:27:16.778Z,24.77
2022-08-30T01:32:28.549Z,24.71
2022-08-30T01:37:31.119Z,24.68
2022-08-30T01:42:38.332Z,24.70
2022-08-30T01:47:45.608Z,24.67
2022-08-30T01:52:52.826Z,24.66
2022-08-30T01:58:00.007Z,24.62
2022-08-30T02:03:07.176Z,24.60
2022-08-30T02:08:14.374Z,24.58
2022-08-30T02:13:21.545Z,24.55
2022-08-30T02:18:28.743Z,24.51
2022-08-30T02:23:36.857Z,24.48
2022-08-30T02:28:49.831Z,24.50
2022-08-30T02:33:51.306Z,24.51
2022-08-30T02:38:58.469Z,24.49
2022-08-30T02:44:05.658Z,24.43
2022-08-30T02:49:32.756Z,24.41
2022-08-30T02:54:20.173Z,24.36
2022-08-30T02:59:27.201Z,24.29
2022-08-30T03:04:34.419Z,24.21
2022-08-30T03:09:41.686Z,24.20
2022-08-30T03:14:50.460Z,24.10
2022-08-30T03:19:57.648Z,24.11
2022-08-30T03:25:04.807Z,24.09
2022-08-30T03:30:12.071Z,24.10
2022-08-30T03:35:19.308Z,24.11
2022-08-30T03:40:26.526Z,24.12
2022-08-30T03:45:33.727Z,24.13
2022-08-30T03:50:40.953Z,24.14
2022-08-30T03:55:48.144Z,24.15
2022-08-30T04:00:56.397Z,24.16
2022-08-30T04:06:03.523Z,24.17
2022-08-30T04:11:10.707Z,24.17
2022-08-30T04:16:18.017Z,24.13
2022-08-30T04:21:25.182Z,24.11
2022-08-30T04:26:32.510Z,24.08
2022-08-30T04:31:42.646Z,24.07
2022-08-30T04:36:49.747Z,24.04
2022-08-30T04:41:56.942Z,24.02
2022-08-30T04:47:06.879Z,24.05
2022-08-30T04:52:14.104Z,24.04
2022-08-30T04:57:21.283Z,24.06
2022-08-30T05:02:28.565Z,24.00
2022-08-30T05:07:35.964Z,23.91
2022-08-30T05:12:43.148Z,23.90
2022-08-30T05:17:52.369Z,23.92
2022-08-30T05:22:59.523Z,23.86
2022-08-30T05:28:06.710Z,23.84
2022-08-30T05:33:13.888Z,23.87
2022-08-30T05:38:21.152Z,23.85
2022-08-30T05:43:30.452Z,23.85
2022-08-30T05:48:37.650Z,23.81
2022-08-30T05:53:47.864Z,23.80
2022-08-30T05:58:55.022Z,23.72
2022-08-30T06:04:04.056Z,23.77
2022-08-30T06:09:10.207Z,23.76
2022-08-30T06:14:17.422Z,23.77
2022-08-30T06:19:24.694Z,23.68
2022-08-30T06:24:55.831Z,23.75
2022-08-30T06:29:40.223Z,23.75
2022-08-30T06:34:47.442Z,23.73
2022-08-30T06:39:54.635Z,23.75
2022-08-30T06:45:01.825Z,23.80
2022-08-30T06:50:12.075Z,23.80
2022-08-30T06:55:19.514Z,23.76
2022-08-30T07:00:26.688Z,23.73
2022-08-30T07:05:33.892Z,23.79
2022-08-30T07:10:41.139Z,23.83
2022-08-30T07:15:48.839Z,23.76
2022-08-30T07:20:59.924Z,23.81
2022-08-30T07:26:07.132Z,23.74
2022-08-30T07:31:14.309Z,23.84
2022-08-30T07:36:21.480Z,23.80
2022-08-30T07:41:28.680Z,23.89
2022-08-30T07:46:35.999Z,23.97
2022-08-30T07:51:43.044Z,23.98
2022-08-30T07:56:50.233Z,24.00
2022-08-30T08:01:58.194Z,24.00
2022-08-30T08:07:05.471Z,23.98
2022-08-30T08:12:12.682Z,24.00
2022-08-30T08:17:22.182Z,23.99
2022-08-30T08:22:31.773Z,24.02
2022-08-30T08:27:42.042Z,23.94
2022-08-30T08:32:49.267Z,24.12
2022-08-30T08:38:00.068Z,24.11
2022-08-30T08:43:11.373Z,24.11
2022-08-30T08:48:18.550Z,24.18
2022-08-30T08:53:45.888Z,24.21
2022-08-30T08:58:41.943Z,24.29
2022-08-30T09:03:49.146Z,24.31
2022-08-30T09:08:56.309Z,24.36
2022-08-30T09:14:03.494Z,24.38
2022-08-30T09:19:10.693Z,24.48
2022-08-30T09:24:19.654Z,24.55
2022-08-30T09:29:28.259Z,24.59
2022-08-30T09:34:37.645Z,24.60
2022-08-30T09:39:59.840Z,24.70
2022-08-30T09:45:21.944Z,24.73
2022-08-30T09:50:29.111Z,24.78
2022-08-30T09:55:36.358Z,24.83
2022-08-30T10:00:43.588Z,24.87
2022-08-30T10:05:52.111Z,24.92
2022-08-30T10:10:57.954Z,24.95
2022-08-30T10:16:05.139Z,25.02
2022-08-30T10:21:15.616Z,25.07
2022-08-30T10:26:19.521Z,25.12
2022-08-30T10:31:26.695Z,25.14
2022-08-30T10:36:33.891Z,25.19
2022-08-30T10:41:41.059Z,25.25
2022-08-30T10:46:48.283Z,25.29
2022-08-30T10:51:55.526Z,25.33
2022-08-30T10:57:02.722Z,25.37
2022-08-30T11:02:09.898Z,25.41
2022-08-30T11:07:17.094Z,25.44
2022-08-30T11:12:24.267Z,25.47
2022-08-30T11:17:31.512Z,25.50
2022-08-30T11:22:39.377Z,25.54
2022-08-30T11:27:45.956Z,25.57
2022-08-30T11:32:53.132Z,25.59
2022-08-30T11:38:00.405Z,25.63
2022-08-30T11:43:07.683Z,25.66
2022-08-30T11:48:14.880Z,25.68
2022-08-30T11:53:22.084Z,25.72
2022-08-30T11:58:29.322Z,25.75
2022-08-30T12:03:36.680Z,25.78
2022-08-30T12:08:44.779Z,25.82
2022-08-30T12:13:51.154Z,25.83
2022-08-30T12:18:58.379Z,25.86
2022-08-30T12:24:05.585Z,25.88
2022-08-30T12:29:12.924Z,25.91
2022-08-30T12:34:20.360Z,25.95
2022-08-30T12:39:27.581Z,25.98
2022-08-30T12:44:34.799Z,25.99
2022-08-30T12:49:42.011Z,26.01
2022-08-30T12:54:49.256Z,26.03
2022-08-30T12:59:59.614Z,26.06
2022-08-30T13:05:03.676Z,26.08
2022-08-30T13:10:12.057Z,26.11
2022-08-30T13:15:18.154Z,26.14
2022-08-30T13:20:25.405Z,26.15
2022-08-30T13:25:32.942Z,26.17
2022-08-30T13:30:39.814Z,26.17
2022-08-30T13:35:47.018Z,26.20
2022-08-30T13:40:54.330Z,26.22
2022-08-30T13:46:01.511Z,26.24
2022-08-30T13:51:08.627Z,26.26
2022-08-30T13:56:15.821Z,26.31
2022-08-30T14:01:23.093Z,26.34
2022-08-30T14:06:34.022Z,26.36
2022-08-30T14:11:37.431Z,26.37
2022-08-30T14:16:44.766Z,26.41
2022-08-30T14:21:51.825Z,26.45
2022-08-30T14:26:59.016Z,26.47
2022-08-30T14:32:06.292Z,26.48
2022-08-30T14:37:13.450Z,26.51
2022-08-30T14:42:20.659Z,26.55
2022-08-30T14:47:29.806Z,26.58
2022-08-30T14:52:35.046Z,26.61
2022-08-30T14:57:42.265Z,26.62
2022-08-30T15:02:49.483Z,26.65
2022-08-30T15:07:56.685Z,26.67
2022-08-30T15:13:04.873Z,26.67
2022-08-30T15:18:11.203Z,26.68
2022-08-30T15:23:18.385Z,26.73
2022-08-30T15:28:25.564Z,26.78
2022-08-30T15:33:32.818Z,26.82
2022-08-30T15:38:40.032Z,26.85
2022-08-30T15:43:47.250Z,26.89
2022-08-30T15:48:54.479Z,26.93
2022-08-30T15:54:01.793Z,26.97
2022-08-30T15:59:08.937Z,26.99
2022-08-30T16:04:16.155Z,27.04
2022-08-30T16:09:23.396Z,27.09
2022-08-30T16:14:30.631Z,27.11
2022-08-30T16:19:37.816Z,27.14
2022-08-30T16:24:46.645Z,27.15
2022-08-30T16:29:52.173Z,27.13
2022-08-30T16:34:59.346Z,27.12
2022-08-30T16:40:06.661Z,27.11
2022-08-30T16:45:13.832Z,27.08
2022-08-30T16:50:21.044Z,27.07
2022-08-30T16:55:28.284Z,27.13
2022-08-30T17:00:35.540Z,27.12
2022-08-30T17:05:44.870Z,27.15
2022-08-30T17:10:50.228Z,27.18
2022-08-30T17:15:57.537Z,27.18
2022-08-30T17:21:04.758Z,27.17
2022-08-30T17:26:11.928Z,27.17
2022-08-30T17:31:19.172Z,27.14
2022-08-30T17:36:26.341Z,27.13
2022-08-30T17:41:33.558Z,27.04
2022-08-30T17:46:40.806Z,26.99
2022-08-30T17:51:47.949Z,27.00
2022-08-30T17:56:55.116Z,26.95
2022-08-30T18:02:02.396Z,26.93
2022-08-30T18:07:11.811Z,26.89
2022-08-30T18:12:16.675Z,26.92
2022-08-30T18:17:23.850Z,26.99
2022-08-30T18:22:31.052Z,26.97
2022-08-30T18:27:39.093Z,26.94
2022-08-30T18:32:45.505Z,26.87
2022-08-30T18:37:52.702Z,26.83
2022-08-30T18:42:59.888Z,26.80
2022-08-30T18:48:07.091Z,26.75
2022-08-30T18:53:14.402Z,26.73
2022-08-30T18:58:21.960Z,26.72
2022-08-30T19:03:32.960Z,26.77
2022-08-30T19:08:37.151Z,26.80
2022-08-30T19:13:44.569Z,26.80
2022-08-30T19:18:51.971Z,26.79
2022-08-30T19:23:59.490Z,26.72
2022-08-30T19:29:06.698Z,26.71
2022-08-30T19:34:14.126Z,26.65
2022-08-30T19:39:21.489Z,26.60
2022-08-30T19:44:28.786Z,26.58
2022-08-30T19:49:36.045Z,26.53
2022-08-30T19:54:43.291Z,26.49
2022-08-30T19:59:50.667Z,26.46
2022-08-30T20:04:57.905Z,26.42
2022-08-30T20:10:05.157Z,26.40
2022-08-30T20:15:12.354Z,26.42
2022-08-30T20:20:20.545Z,26.41
2022-08-30T20:25:26.827Z,26.42
2022-08-30T20:30:34.481Z,26.40
2022-08-30T20:35:43.544Z,26.39
2022-08-30T20:40:48.577Z,26.35
2022-08-30T20:45:55.832Z,26.33
2022-08-30T20:51:03.012Z,26.29
2022-08-30T20:56:10.214Z,26.24
2022-08-30T21:01:17.508Z,26.21
2022-08-30T21:06:24.586Z,26.21
2022-08-30T21:11:31.833Z,26.28
2022-08-30T21:16:40.448Z,26.36
2022-08-30T21:21:47.568Z,26.39
2022-08-30T21:26:54.738Z,26.43
2022-08-30T21:32:01.925Z,26.45
2022-08-30T21:37:09.126Z,26.49
2022-08-30T21:42:16.408Z,26.52
2022-08-30T21:47:24.030Z,26.55
2022-08-30T21:52:30.998Z,26.57
2022-08-30T21:57:38.273Z,26.63
2022-08-30T22:02:45.674Z,26.64
2022-08-30T22:07:53.416Z,26.65
2022-08-30T22:13:00.601Z,26.66
2022-08-30T22:18:07.803Z,26.64
2022-08-30T22:23:18.974Z,26.60
2022-08-30T22:28:22.274Z,26.57
2022-08-30T22:33:29.453Z,26.56
2022-08-30T22:38:36.641Z,26.61
2022-08-30T22:43:43.827Z,26.57
2022-08-30T22:48:51.014Z,26.62
2022-08-30T22:53:58.284Z,26.61
2022-08-30T22:59:05.555Z,26.62
2022-08-30T23:04:12.768Z,26.64
2022-08-30T23:09:20.023Z,26.64
2022-08-30T23:14:27.247Z,26.59
2022-08-30T23:19:34.538Z,26.50
2022-08-30T23:24:41.706Z,26.38
2022-08-30T23:29:48.916Z,26.41
2022-08-30T23:34:56.183Z,26.40
2022-08-30T23:40:03.502Z,26.38
2022-08-30T23:45:10.699Z,26.32
2022-08-30T23:50:17.939Z,26.32
2022-08-30T23:55:25.215Z,26.18
